• Join FlightAware (Why Join?)
  • Login
  • US Flag 
04:43PM EDT


 

Airport Tracker/Info


-or-


 

Live Flight TrackerFlight Track Log ✈ GGN7280 ✈ 10-Jul-2013 ✈ CYYZ - KALB

Flight Track Log - Related Links

Times and Time Zones

All times are in EDT time to prevent confusion due to time zone crossing. See the GGN7280 flight status page for this flight to view local times or setup timezone preferences in your user account.

Time Position Orientation Groundspeed Altitude Reporting Facility
EDT Latitude Longitude Course Direction KTS MPH feet Rate Location/Type
11:17AM 43.6333 -79.6167 144° Southeast 140 161 1,700  Level Toronto Center
11:18AM 43.6000 -79.5833 144° Southeast 160 184 3,100 1,380 Climbing Toronto Center
11:19AM 43.5667 -79.5167 125° Southeast 190 219 4,500 900 Climbing Toronto Center
11:20AM 43.5333 -79.4500 125° Southeast 230 265 5,000 840 Climbing Toronto Center
11:21AM 43.5000 -79.3833 125° Southeast 250 288 6,200 1,320 Climbing Toronto Center
11:22AM 43.4833 -79.2833 103° East 240 276 7,700 1,020 Climbing Toronto Center
11:23AM 43.4667 -79.2000 105° East 250 288 8,300 900 Climbing Toronto Center
11:24AM 43.4500 -79.1000 103° East 260 299 9,600 1,200 Climbing Toronto Center
11:25AM 43.4333 -79.0167 105° East 260 299 10,700 1,080 Climbing Toronto Center
11:26AM 43.4167 -78.9000 101° East 260 299 11,800 1,020 Climbing Toronto Center
11:27AM 43.3833 -78.8333 125° Southeast 270 311 12,800 600 Climbing Toronto Center
11:28AM 43.3333 -78.7167 120° Southeast 280 322 13,000 60 Climbing Toronto Center
11:29AM 43.3094 -78.6861 137° Southeast 286 329 13,000  Level Cleveland Center
11:30AM 43.2622 -78.5906 124° Southeast 296 341 13,000  Level Cleveland Center
11:31AM 43.2125 -78.4897 124° Southeast 308 354 13,000 180 Level Cleveland Center
11:32AM 43.1628 -78.3972 126° Southeast 313 360 13,400 840 Climbing Cleveland Center
11:33AM 43.1194 -78.3078 124° Southeast 302 348 14,700 1,140 Climbing Cleveland Center
11:34AM 43.0800 -78.2211 122° Southeast 279 321 15,700 1,020 Climbing Cleveland Center
11:35AM 43.0367 -78.1347 124° Southeast 279 321 16,800 960 Climbing Cleveland Center
11:36AM 42.9953 -78.0511 124° Southeast 274 315 17,700 900 Climbing Cleveland Center
11:37AM 42.9558 -77.9706 124° Southeast 274 315 18,700 900 Climbing Cleveland Center
11:38AM 42.9122 -77.8872 126° Southeast 268 308 19,500 720 Climbing Cleveland Center
11:39AM 42.9078 -77.7856 93° East 255 293 20,200 660 Climbing Cleveland Center
11:40AM 42.9094 -77.6833 89° East 260 299 20,900 600 Climbing Cleveland Center
11:41AM 42.9069 -77.5814 92° East 260 299 21,500 540 Climbing Cleveland Center
11:42AM 42.9042 -77.4767 92° East 265 305 22,000 540 Climbing Cleveland Center
11:43AM 42.8992 -77.3747 94° East 271 312 22,600 420 Climbing Cleveland Center
11:44AM 42.8989 -77.2897 90° East 276 318 22,900 180 Climbing Cleveland Center
11:45AM 42.8956 -77.1736 92° East 276 318 23,000  Climbing Cleveland Center
11:47AM 42.8833 -76.8833 93° East 290 334 23,000  Level Toronto Center
11:48AM 42.8839 -76.7961 89° East 300 345 23,000  Level Boston Center
11:49AM 42.8819 -76.6853 91° East 290 334 23,000  Level Boston Center
11:50AM 42.8775 -76.5772 93° East 290 334 23,000  Level Boston Center
11:51AM 42.8731 -76.4664 93° East 290 334 23,000  Level Boston Center
11:52AM 42.8686 -76.3583 93° East 290 334 23,000  Level Boston Center
11:53AM 42.8658 -76.2533 92° East 290 334 23,000  Level Boston Center
11:54AM 42.8611 -76.1456 93° East 285 328 23,000  Level Boston Center
11:55AM 42.8522 -76.0344 96° East 285 328 23,000  Level Boston Center
11:56AM 42.8553 -75.9383 87° East 285 328 23,000  Level Boston Center
11:57AM 42.8500 -75.8331 94° East 285 328 23,000  Level Boston Center
11:58AM 42.8428 -75.7281 95° East 285 328 23,000  Level Boston Center
11:59AM 42.8392 -75.6286 93° East 273 314 23,000  Level Boston Center
12:00PM 42.8336 -75.5264 94° East 273 314 23,000 -60 Level Boston Center
12:01PM 42.8303 -75.4214 92° East 273 314 22,900 -720 Descending Boston Center
12:02PM 42.8267 -75.3136 93° East 273 314 21,600 -1,320 Descending Boston Center
12:03PM 42.8192 -75.1972 95° East 284 327 20,300 -1,440 Descending Boston Center
12:04PM 42.8136 -75.0836 94° East 298 343 18,800 -1,380 Descending Boston Center
12:05PM 42.8078 -74.9703 94° East 298 343 17,300 -1,320 Descending Boston Center
12:06PM 42.8025 -74.8369 93° East 293 337 15,900 -1,260 Descending Boston Center
12:07PM 42.7944 -74.7122 95° East 293 337 14,800 -1,320 Descending Boston Center
12:08PM 42.7897 -74.6383 95° East 301 346 13,700 -1,560 Descending Boston Center
12:09PM 42.7889 -74.5789 91° East 293 337 12,700 -1,860 Descending Boston Center
12:09PM 42.7825 -74.4628 94° East 301 346 10,900 -1,680 Descending Boston Center
12:10PM 42.7781 -74.3550 93° East 287 330 9,700 -1,140 Descending Boston Center
12:11PM 42.8108 -74.2656 63° Northeast 259 298 8,700 -1,020 Descending Boston Center
12:12PM 42.8331 -74.1842 70° East 258 297 7,800 -1,020 Descending Boston Center
12:13PM 42.7967 -74.1067 123° Southeast 239 275 6,800 -1,080 Descending Boston Center
12:14PM 42.7453 -74.0544 143° Southeast 225 259 5,700 -1,200 Descending Boston Center
12:15PM 42.6875 -74.0192 156° South 212 244 4,500 -1,200 Descending Boston Center
12:16PM 42.6275 -73.9781 153° Southeast 213 245 3,200 -720 Descending Boston Center
12:18PM 42.5761 -73.9400 151° Southeast 207 238 3,000 -180 Descending Boston Center
12:19PM 42.5347 -73.9053 148° Southeast 208 239 2,900 -60 Descending Boston Center
12:20PM 42.5650 -73.8214 64° Northeast 179 206 2,900 -240 Level Boston Center
12:21PM 42.6133 -73.7858 28° Northeast 222 255 2,500 -540 Descending Boston Center
12:22PM 42.6639 -73.7503 27° Northeast 199 229 1,900 -300 Descending Boston Center
12:23PM 42.7122 -73.7172 27° Northeast 197 227 1,900 -240 Level Boston Center
12:23PM 42.7494 -73.7236 353° North 180 207 1,500 -480 Descending Boston Center
12:25PM 42.7491 -73.8020 270° West  Level Estimated
12:32PM 42.7491 -73.8020 304° West  Level Estimated
12:33PM 42.7491 -73.8020 304° West  Level Estimated